createdAt,value
2023-04-07T00:03:28.906Z,2.9
2023-04-07T00:08:28.829Z,2.5
2023-04-07T00:13:29.570Z,2.0
2023-04-07T00:18:28.802Z,2.9
2023-04-07T00:23:28.715Z,3.0
2023-04-07T00:28:28.815Z,3.0
2023-04-07T00:33:28.725Z,3.2
2023-04-07T00:38:28.829Z,2.5
2023-04-07T00:43:28.726Z,2.2
2023-04-07T00:48:28.865Z,3.8
2023-04-07T00:53:28.705Z,1.8
2023-04-07T00:58:28.802Z,1.8
2023-04-07T01:03:28.951Z,1.7
2023-04-07T01:08:28.820Z,2.9
2023-04-07T01:13:28.732Z,9.6
2023-04-07T01:18:28.804Z,2.9
2023-04-07T01:23:28.728Z,3.8
2023-04-07T01:28:28.775Z,3.8
2023-04-07T01:33:28.724Z,5.5
2023-04-07T01:38:28.779Z,2.4
2023-04-07T01:43:28.717Z,3.3
2023-04-07T01:48:28.782Z,3.4
2023-04-07T01:53:28.736Z,3.1
2023-04-07T01:58:28.830Z,3.1
2023-04-07T02:03:28.814Z,4.0
2023-04-07T02:08:30.046Z,3.7
2023-04-07T02:13:28.752Z,5.9
2023-04-07T02:18:28.800Z,2.5
2023-04-07T02:23:28.749Z,2.8
2023-04-07T02:28:28.837Z,2.8
2023-04-07T02:33:28.728Z,1.8
2023-04-07T02:38:28.824Z,2.6
2023-04-07T02:43:28.743Z,2.2
2023-04-07T02:48:28.837Z,5.8
2023-04-07T02:53:28.737Z,2.7
2023-04-07T02:58:28.833Z,2.7
2023-04-07T03:03:28.961Z,1.6
2023-04-07T03:08:28.880Z,2.3
2023-04-07T03:13:28.724Z,2.1
2023-04-07T03:18:28.840Z,5.2
2023-04-07T03:23:28.736Z,3.8
2023-04-07T03:28:28.840Z,3.8
2023-04-07T03:33:28.741Z,3.4
2023-04-07T03:38:28.838Z,3.5
2023-04-07T03:43:28.747Z,7.2
2023-04-07T03:48:29.385Z,2.7
2023-04-07T03:53:28.747Z,2.3
2023-04-07T03:58:28.804Z,2.3
2023-04-07T04:03:28.920Z,4.5
2023-04-07T04:08:28.860Z,1.4
2023-04-07T04:13:28.730Z,5.2
2023-04-07T04:18:28.803Z,4.2
2023-04-07T04:23:28.747Z,5.0
2023-04-07T04:28:28.839Z,5.0
2023-04-07T04:33:28.741Z,2.2
2023-04-07T04:38:28.845Z,2.3
2023-04-07T04:43:28.747Z,3.8
2023-04-07T04:48:28.840Z,3.0
2023-04-07T04:53:28.753Z,2.7
2023-04-07T04:58:28.854Z,2.7
2023-04-07T05:03:28.920Z,3.4
2023-04-07T05:08:28.873Z,5.0
2023-04-07T05:13:28.763Z,6.6
2023-04-07T05:18:28.842Z,2.1
2023-04-07T05:23:28.759Z,4.5
2023-04-07T05:28:28.853Z,4.5
2023-04-07T05:33:28.734Z,2.6
2023-04-07T05:38:28.862Z,3.0
2023-04-07T05:43:28.768Z,3.7
2023-04-07T05:48:28.818Z,2.5
2023-04-07T05:53:28.774Z,3.7
2023-04-07T05:58:28.858Z,3.7
2023-04-07T06:03:28.855Z,3.8
2023-04-07T06:08:28.848Z,6.2
2023-04-07T06:13:28.757Z,5.1
2023-04-07T06:18:28.863Z,4.7
2023-04-07T06:23:28.765Z,3.7
2023-04-07T06:28:28.858Z,3.7
2023-04-07T06:33:28.761Z,4.2
2023-04-07T06:38:28.862Z,5.1
2023-04-07T06:43:28.778Z,7.7
2023-04-07T06:48:28.852Z,4.2
2023-04-07T06:53:28.763Z,7.6
2023-04-07T06:58:29.108Z,7.6
2023-04-07T07:03:28.989Z,5.3
2023-04-07T07:08:28.842Z,3.3
2023-04-07T07:13:28.786Z,3.9
2023-04-07T07:18:30.432Z,5.2
2023-04-07T07:23:28.765Z,5.1
2023-04-07T07:28:28.848Z,5.1
2023-04-07T07:33:28.769Z,6.8
2023-04-07T07:38:28.832Z,2.7
2023-04-07T07:43:28.782Z,3.7
2023-04-07T07:48:28.831Z,5.2
2023-04-07T07:53:28.803Z,3.0
2023-04-07T08:03:28.973Z,3.3
2023-04-07T08:08:28.893Z,4.7
2023-04-07T08:13:28.785Z,3.7
2023-04-07T08:18:28.877Z,3.5
2023-04-07T08:23:28.779Z,4.0
2023-04-07T08:28:28.872Z,4.0
2023-04-07T08:33:28.790Z,2.3
2023-04-07T08:38:28.873Z,3.7
2023-04-07T08:43:28.772Z,9.1
2023-04-07T08:48:28.913Z,8.6
2023-04-07T08:53:28.790Z,4.4
2023-04-07T08:58:28.881Z,4.4
2023-04-07T09:03:28.872Z,5.9
2023-04-07T09:08:28.902Z,4.5
2023-04-07T09:13:28.797Z,4.0
2023-04-07T09:18:28.842Z,4.3
2023-04-07T09:23:28.800Z,2.9
2023-04-07T09:28:28.836Z,2.9
2023-04-07T09:33:28.787Z,6.0
2023-04-07T09:38:28.881Z,3.1
2023-04-07T09:43:28.784Z,4.5
2023-04-07T09:48:28.838Z,3.2
2023-04-07T09:53:28.794Z,4.7
2023-04-07T09:58:28.878Z,4.7
2023-04-07T10:03:28.850Z,2.5
2023-04-07T10:08:28.903Z,4.6
2023-04-07T10:13:28.787Z,3.5
2023-04-07T10:18:28.841Z,6.0
2023-04-07T10:23:28.801Z,6.8
2023-04-07T10:28:28.858Z,6.8
2023-04-07T10:33:28.817Z,3.7
2023-04-07T10:38:28.855Z,3.9
2023-04-07T10:43:28.890Z,1.9
2023-04-07T10:48:28.894Z,3.4
2023-04-07T10:53:28.814Z,1.8
2023-04-07T10:58:28.779Z,1.8
2023-04-07T11:03:28.994Z,4.3
2023-04-07T11:08:28.874Z,3.3
2023-04-07T11:13:28.806Z,4.1
2023-04-07T11:18:28.943Z,3.3
2023-04-07T11:23:28.827Z,3.8
2023-04-07T11:28:28.871Z,3.8
2023-04-07T11:33:28.819Z,4.4
2023-04-07T11:38:28.870Z,1.9
2023-04-07T11:43:28.818Z,2.6
2023-04-07T11:48:28.915Z,1.9
2023-04-07T11:53:28.817Z,1.5
2023-04-07T11:58:28.933Z,1.5
2023-04-07T12:03:28.965Z,1.8
2023-04-07T12:08:28.905Z,1.0
2023-04-07T12:13:28.813Z,2.1
2023-04-07T12:18:28.883Z,3.3
2023-04-07T12:23:28.814Z,1.4
2023-04-07T12:28:28.884Z,1.4
2023-04-07T12:33:28.818Z,1.4
2023-04-07T12:38:28.888Z,0.9
2023-04-07T12:43:28.858Z,1.6
2023-04-07T12:48:28.878Z,1.4
2023-04-07T12:53:28.822Z,1.7
2023-04-07T12:58:28.919Z,1.7
2023-04-07T13:03:29.092Z,1.1
2023-04-07T13:08:28.881Z,0.7
2023-04-07T13:13:28.826Z,1.6
2023-04-07T13:18:28.892Z,1.1
2023-04-07T13:23:28.807Z,0.9
2023-04-07T13:28:28.926Z,0.9
2023-04-07T13:33:28.821Z,1.1
2023-04-07T13:38:28.940Z,1.2
2023-04-07T13:43:28.833Z,2.4
2023-04-07T13:48:28.923Z,1.5
2023-04-07T13:53:28.826Z,4.0
2023-04-07T13:58:30.529Z,4.0
2023-04-07T14:03:28.956Z,2.1
2023-04-07T14:08:28.940Z,1.3
2023-04-07T14:13:28.827Z,2.9
2023-04-07T14:18:28.922Z,3.2
2023-04-07T14:23:36.621Z,1.5
2023-04-07T14:28:28.918Z,1.5
2023-04-07T14:33:28.832Z,1.2
2023-04-07T14:38:28.894Z,2.6
2023-04-07T14:43:28.833Z,1.9
2023-04-07T14:48:28.891Z,1.1
2023-04-07T14:53:28.843Z,1.7
2023-04-07T14:58:28.889Z,1.7
2023-04-07T15:03:29.122Z,2.7
2023-04-07T15:08:28.904Z,3.5
2023-04-07T15:13:28.845Z,1.7
2023-04-07T15:18:28.917Z,2.8
2023-04-07T15:23:28.850Z,3.1
2023-04-07T15:28:28.913Z,3.1
2023-04-07T15:33:28.841Z,3.6
2023-04-07T15:38:28.900Z,1.5
2023-04-07T15:43:28.852Z,1.9
2023-04-07T15:48:28.909Z,2.6
2023-04-07T15:53:28.846Z,2.6
2023-04-07T15:58:28.937Z,1.5
2023-04-07T16:03:29.118Z,2.1
2023-04-07T16:08:28.931Z,2.9
2023-04-07T16:13:28.848Z,2.3
2023-04-07T16:18:28.895Z,1.9
2023-04-07T16:23:28.841Z,1.9
2023-04-07T16:28:28.897Z,4.1
2023-04-07T16:33:28.874Z,2.3
2023-04-07T16:38:28.934Z,1.1
2023-04-07T16:43:28.853Z,1.9
2023-04-07T16:48:28.930Z,3.0
2023-04-07T16:53:28.842Z,3.0
2023-04-07T16:58:28.931Z,2.0
2023-04-07T17:03:29.194Z,1.9
2023-04-07T17:08:28.942Z,1.7
2023-04-07T17:13:28.843Z,2.1
2023-04-07T17:18:28.940Z,1.4
2023-04-07T17:23:28.866Z,1.4
2023-04-07T17:28:28.942Z,4.1
2023-04-07T17:33:30.575Z,1.4
2023-04-07T17:38:28.904Z,4.4
2023-04-07T17:43:28.825Z,7.0
2023-04-07T17:48:28.934Z,4.5
2023-04-07T17:53:28.872Z,4.5
2023-04-07T17:58:28.903Z,2.4
2023-04-07T18:03:29.013Z,3.4
2023-04-07T18:08:28.925Z,2.1
2023-04-07T18:13:28.853Z,2.0
2023-04-07T18:18:28.942Z,2.9
2023-04-07T18:23:28.902Z,2.9
2023-04-07T18:28:28.908Z,5.3
2023-04-07T18:33:28.862Z,9.5
2023-04-07T18:38:28.910Z,6.3
2023-04-07T18:43:28.838Z,3.9
2023-04-07T18:48:28.950Z,4.4
2023-04-07T18:53:28.870Z,4.4
2023-04-07T18:58:28.914Z,6.4
2023-04-07T19:03:29.017Z,4.3
2023-04-07T19:08:29.063Z,4.1
2023-04-07T19:13:28.865Z,3.8
2023-04-07T19:18:28.960Z,8.7
2023-04-07T19:23:28.873Z,8.7
2023-04-07T19:28:28.943Z,11.5
2023-04-07T19:33:28.878Z,10.6
2023-04-07T19:38:28.994Z,10.2
2023-04-07T19:43:28.865Z,11.2
2023-04-07T19:48:28.946Z,14.0
2023-04-07T19:53:28.882Z,14.0
2023-04-07T19:58:28.951Z,9.5
2023-04-07T20:03:28.941Z,8.7
2023-04-07T20:08:28.960Z,14.3
2023-04-07T20:13:28.902Z,16.2
2023-04-07T20:18:28.950Z,13.9
2023-04-07T20:23:28.885Z,13.9
2023-04-07T20:28:28.988Z,15.1
2023-04-07T20:33:28.903Z,13.3
2023-04-07T20:38:28.993Z,15.8
2023-04-07T20:43:28.907Z,17.8
2023-04-07T20:48:28.984Z,17.6
2023-04-07T20:53:28.886Z,17.6
2023-04-07T20:58:28.950Z,23.0
2023-04-07T21:03:29.106Z,20.9
2023-04-07T21:08:29.009Z,13.9
2023-04-07T21:13:28.900Z,15.0
2023-04-07T21:18:28.962Z,12.7
2023-04-07T21:23:28.942Z,12.7
2023-04-07T21:28:28.972Z,18.0
2023-04-07T21:33:28.907Z,16.6
2023-04-07T21:38:29.005Z,11.7
2023-04-07T21:43:28.903Z,13.2
2023-04-07T21:48:28.970Z,14.7
2023-04-07T21:53:28.915Z,14.7
2023-04-07T21:58:28.964Z,16.8
2023-04-07T22:03:29.129Z,17.2
2023-04-07T22:08:29.047Z,16.4
2023-04-07T22:13:28.937Z,15.2
2023-04-07T22:18:29.003Z,17.2
2023-04-07T22:23:28.984Z,17.2
2023-04-07T22:28:29.020Z,12.5
2023-04-07T22:33:28.933Z,14.4
2023-04-07T22:38:29.077Z,22.0
2023-04-07T22:43:28.911Z,20.6
2023-04-07T22:48:29.024Z,17.3
2023-04-07T22:53:28.920Z,17.3
2023-04-07T22:58:29.013Z,14.0
2023-04-07T23:03:29.184Z,11.2
2023-04-07T23:08:29.034Z,12.0
2023-04-07T23:13:28.899Z,13.1
2023-04-07T23:18:29.019Z,10.5
2023-04-07T23:23:28.938Z,10.5
2023-04-07T23:28:29.036Z,13.4
2023-04-07T23:33:28.930Z,9.2
2023-04-07T23:38:29.034Z,9.5
2023-04-07T23:43:28.972Z,7.8
2023-04-07T23:48:29.037Z,8.9
2023-04-07T23:53:28.960Z,8.9
2023-04-07T23:58:29.006Z,8.7
